(°C)
23°
24°
25°
24°
23°
22°
21°
(°C)
24°
26°
27°
27°
25°
24°
23°
E
SE
SSE
S
SSO
SO
OSO
(km/h)
5-10
5-11
5-11
4-10
4-10
4-9
4-8
(mm)
0
0
0
0
0
0
0
(%)
21
13
5
5
4
4
3

Élévation du soleil

/ 39.7°
sun-icon
UV 4
07:02
17:35
Dernier croissant (320°)
03:54
15:36

METAR pour Tampa (KTPF)

Heure Conditions Température/
Point de rosée
Vent Visibilité Météo Nuages Pression Changement Brut
VFR 24°C / 14°C 80º 3kt >10km - Broken Clouds 11000ft - KTPF 011635Z AUTO 08003KT 10SM BKN110 24/14 A3022 RMK AO2
VFR 23°C / 13°C 70º 4kt >10km - Scattered Clouds 10000ft - KTPF 011615Z AUTO 07004KT 10SM SCT100 23/13 A3023 RMK AO2
VFR 22°C / 13°C 80º 4kt >10km - Overcast 10000ft - KTPF 011555Z AUTO 08004KT 10SM OVC100 22/13 A3024 RMK AO2
VFR 21°C / 13°C 70º 6kt >10km - Overcast 10000ft - KTPF 011535Z AUTO 07006KT 10SM OVC100 21/13 A3025 RMK AO2
VFR 20°C / 13°C 60º 7kt >10km - Overcast 11000ft - KTPF 011515Z AUTO 06007KT 10SM OVC110 20/13 A3025 RMK AO2
VFR 20°C / 13°C 50º 7kt >10km - Overcast 10000ft - KTPF 011455Z AUTO 05007KT 10SM OVC100 20/13 A3026 RMK AO2
VFR 18°C / 13°C 60º 6kt >10km - Overcast 11000ft - KTPF 011435Z AUTO 06006KT 10SM OVC110 18/13 A3026 RMK AO2
VFR 17°C / 13°C 60º 7kt >10km - Overcast 11000ft - KTPF 011415Z AUTO 06007KT 10SM OVC110 17/13 A3025 RMK AO2
VFR 17°C / 12°C 90º variable 055º to 115º 7kt >10km - Overcast 11000ft - KTPF 011355Z AUTO 09007KT 055V115 10SM OVC110 17/12 A3024 RMK AO2
VFR 16°C / 12°C 70º 5kt >10km - Overcast 11000ft - KTPF 011335Z AUTO 07005KT 10SM OVC110 16/12 A3024 RMK AO2
VFR 15°C / 11°C 60º 4kt >10km - Broken Clouds 11000ft - KTPF 011315Z AUTO 06004KT 10SM BKN110 15/11 A3023 RMK AO2
VFR 13°C / 11°C 50º 4kt >10km - Broken Clouds 11000ft - KTPF 011255Z AUTO 05004KT 10SM BKN110 13/11 A3022 RMK AO2
VFR 13°C / 11°C 50º 5kt >10km - Broken Clouds 11000ft - KTPF 011235Z AUTO 05005KT 10SM BKN110 13/11 A3022 RMK AO2
VFR 12°C / 10°C 60º 5kt >10km - Broken Clouds 11000ft - KTPF 011215Z AUTO 06005KT 10SM BKN110 12/10 A3021 RMK AO2
VFR 12°C / 10°C 50º 5kt >10km - Overcast 11000ft - KTPF 011155Z AUTO 05005KT 10SM OVC110 12/10 A3021 RMK AO2
VFR 12°C / 10°C 60º 7kt >10km - Broken Clouds 11000ft - KTPF 011135Z AUTO 06007KT 10SM BKN110 12/10 A3020 RMK AO2
VFR 12°C / 10°C 60º 7kt >10km - Broken Clouds 11000ft - KTPF 011115Z AUTO 06007KT 10SM BKN110 12/10 A3019 RMK AO2
VFR 12°C / 10°C 50º 7kt >10km - Broken Clouds 11000ft - KTPF 011055Z AUTO 05007KT 10SM BKN110 12/10 A3019 RMK AO2
VFR 11°C / 10°C 50º 6kt >10km - Overcast 11000ft - KTPF 011035Z AUTO 05006KT 10SM OVC110 11/10 A3019 RMK AO2
VFR 11°C / 10°C 50º 5kt >10km - Overcast 11000ft - KTPF 011015Z AUTO 05005KT 10SM OVC110 11/10 A3019 RMK AO2
VFR 11°C / 10°C 60º 6kt >10km - Overcast 11000ft - KTPF 010955Z AUTO 06006KT 10SM OVC110 11/10 A3018 RMK AO2
VFR 11°C / 10°C 60º 5kt >10km - Overcast 11000ft - KTPF 010935Z AUTO 06005KT 10SM OVC110 11/10 A3018 RMK AO2
VFR 11°C / 10°C 60º 5kt >10km - Overcast 11000ft - KTPF 010915Z AUTO 06005KT 10SM OVC110 11/10 A3017 RMK AO2
VFR 11°C / 9°C 70º 5kt >10km - Overcast 11000ft - KTPF 010855Z AUTO 07005KT 10SM OVC110 11/09 A3017 RMK AO2

VFR

24°C / 14°C

[Plus]
Vent 80º 3kt
Visibilité >10km
Météo -
Nuages Broken Clouds 11000ft
Pression
Changement -
Brut KTPF 011635Z AUTO 08003KT 10SM BKN110 24/14 A3022 RMK AO2

VFR

23°C / 13°C

[Plus]
Vent 70º 4kt
Visibilité >10km
Météo -
Nuages Scattered Clouds 10000ft
Pression
Changement -
Brut KTPF 011615Z AUTO 07004KT 10SM SCT100 23/13 A3023 RMK AO2

VFR

22°C / 13°C

[Plus]
Vent 80º 4kt
Visibilité >10km
Météo -
Nuages Overcast 10000ft
Pression
Changement -
Brut KTPF 011555Z AUTO 08004KT 10SM OVC100 22/13 A3024 RMK AO2

VFR

21°C / 13°C

[Plus]
Vent 70º 6kt
Visibilité >10km
Météo -
Nuages Overcast 10000ft
Pression
Changement -
Brut KTPF 011535Z AUTO 07006KT 10SM OVC100 21/13 A3025 RMK AO2

VFR

20°C / 13°C

[Plus]
Vent 60º 7kt
Visibilité >10km
Météo -
Nuages Overcast 11000ft
Pression
Changement -
Brut KTPF 011515Z AUTO 06007KT 10SM OVC110 20/13 A3025 RMK AO2

VFR

20°C / 13°C

[Plus]
Vent 50º 7kt
Visibilité >10km
Météo -
Nuages Overcast 10000ft
Pression
Changement -
Brut KTPF 011455Z AUTO 05007KT 10SM OVC100 20/13 A3026 RMK AO2

VFR

18°C / 13°C

[Plus]
Vent 60º 6kt
Visibilité >10km
Météo -
Nuages Overcast 11000ft
Pression
Changement -
Brut KTPF 011435Z AUTO 06006KT 10SM OVC110 18/13 A3026 RMK AO2

VFR

17°C / 13°C

[Plus]
Vent 60º 7kt
Visibilité >10km
Météo -
Nuages Overcast 11000ft
Pression
Changement -
Brut KTPF 011415Z AUTO 06007KT 10SM OVC110 17/13 A3025 RMK AO2

VFR

17°C / 12°C

[Plus]
Vent 90º variable 055º to 115º 7kt
Visibilité >10km
Météo -
Nuages Overcast 11000ft
Pression
Changement -
Brut KTPF 011355Z AUTO 09007KT 055V115 10SM OVC110 17/12 A3024 RMK AO2

VFR

16°C / 12°C

[Plus]
Vent 70º 5kt
Visibilité >10km
Météo -
Nuages Overcast 11000ft
Pression
Changement -
Brut KTPF 011335Z AUTO 07005KT 10SM OVC110 16/12 A3024 RMK AO2

VFR

15°C / 11°C

[Plus]
Vent 60º 4kt
Visibilité >10km
Météo -
Nuages Broken Clouds 11000ft
Pression
Changement -
Brut KTPF 011315Z AUTO 06004KT 10SM BKN110 15/11 A3023 RMK AO2

VFR

13°C / 11°C

[Plus]
Vent 50º 4kt
Visibilité >10km
Météo -
Nuages Broken Clouds 11000ft
Pression
Changement -
Brut KTPF 011255Z AUTO 05004KT 10SM BKN110 13/11 A3022 RMK AO2

VFR

13°C / 11°C

[Plus]
Vent 50º 5kt
Visibilité >10km
Météo -
Nuages Broken Clouds 11000ft
Pression
Changement -
Brut KTPF 011235Z AUTO 05005KT 10SM BKN110 13/11 A3022 RMK AO2

VFR

12°C / 10°C

[Plus]
Vent 60º 5kt
Visibilité >10km
Météo -
Nuages Broken Clouds 11000ft
Pression
Changement -
Brut KTPF 011215Z AUTO 06005KT 10SM BKN110 12/10 A3021 RMK AO2

VFR

12°C / 10°C

[Plus]
Vent 50º 5kt
Visibilité >10km
Météo -
Nuages Overcast 11000ft
Pression
Changement -
Brut KTPF 011155Z AUTO 05005KT 10SM OVC110 12/10 A3021 RMK AO2

VFR

12°C / 10°C

[Plus]
Vent 60º 7kt
Visibilité >10km
Météo -
Nuages Broken Clouds 11000ft
Pression
Changement -
Brut KTPF 011135Z AUTO 06007KT 10SM BKN110 12/10 A3020 RMK AO2

VFR

12°C / 10°C

[Plus]
Vent 60º 7kt
Visibilité >10km
Météo -
Nuages Broken Clouds 11000ft
Pression
Changement -
Brut KTPF 011115Z AUTO 06007KT 10SM BKN110 12/10 A3019 RMK AO2

VFR

12°C / 10°C

[Plus]
Vent 50º 7kt
Visibilité >10km
Météo -
Nuages Broken Clouds 11000ft
Pression
Changement -
Brut KTPF 011055Z AUTO 05007KT 10SM BKN110 12/10 A3019 RMK AO2

VFR

11°C / 10°C

[Plus]
Vent 50º 6kt
Visibilité >10km
Météo -
Nuages Overcast 11000ft
Pression
Changement -
Brut KTPF 011035Z AUTO 05006KT 10SM OVC110 11/10 A3019 RMK AO2

VFR

11°C / 10°C

[Plus]
Vent 50º 5kt
Visibilité >10km
Météo -
Nuages Overcast 11000ft
Pression
Changement -
Brut KTPF 011015Z AUTO 05005KT 10SM OVC110 11/10 A3019 RMK AO2

VFR

11°C / 10°C

[Plus]
Vent 60º 6kt
Visibilité >10km
Météo -
Nuages Overcast 11000ft
Pression
Changement -
Brut KTPF 010955Z AUTO 06006KT 10SM OVC110 11/10 A3018 RMK AO2

VFR

11°C / 10°C

[Plus]
Vent 60º 5kt
Visibilité >10km
Météo -
Nuages Overcast 11000ft
Pression
Changement -
Brut KTPF 010935Z AUTO 06005KT 10SM OVC110 11/10 A3018 RMK AO2

VFR

11°C / 10°C

[Plus]
Vent 60º 5kt
Visibilité >10km
Météo -
Nuages Overcast 11000ft
Pression
Changement -
Brut KTPF 010915Z AUTO 06005KT 10SM OVC110 11/10 A3017 RMK AO2

VFR

11°C / 9°C

[Plus]
Vent 70º 5kt
Visibilité >10km
Météo -
Nuages Overcast 11000ft
Pression
Changement -
Brut KTPF 010855Z AUTO 07005KT 10SM OVC110 11/09 A3017 RMK AO2

Les images satellites pour Tampa, États-Unis

Le marqueur est placé sur Tampa. [Plus]

L'image satellite en temps réel combine la lumière visible pendant la journée et le rayonnement infrarouge pendant la nuit. La nuit, l'image n'est pas sombre car le rayonnement infrarouge permet de détecter les différences de température. Malheureusement, les nuages bas et le brouillard sont difficiles à distinguer des températures au sol et peuvent donc être presque invisibles pendant la nuit. Les images des satellites Météosat pour l'Europe sont mises à jour en temps réel toutes les 5 minutes. Les images GOES-16/GOES-17 (Amérique du Nord et du Sud) et Himawari (Asie) sont mises à jour toutes les 10 minutes.

Radar et prévision de précipitation à court terme pour Tampa

Bruine
Légère
Modéré
Fort
Très fort
Grêle

Le marqueur est placé sur Tampa. Cette animation montre le Radar des précipitations pour les dernières heures, ainsi qu'une 1h prévision. La bruine ou les légères chutes de neiges peuvent ne pas être détectées par le radar. L'intensité des précipitations est visible avec un code couleur allant du bleu clair au violet foncé et orange.